UAL1408 KIAH-MZBZ
Flight info
| Callsign | UAL1408 |
|---|---|
| Flight time | 1h 52m |
| Altitude | 37000 |
| Route | FLYZA5 ANKRR L208 DUTNA DCT AVOMA DCT TUGET DCT MEBUM |
| Aircraft | B738/M-SDE2E3FGHIRWXY/LB1 |
Departure
| Time | 2026-05-05 11:25 |
|---|---|
| Airport | George Bush Intercontinental Airport (KIAH) |
Arrival
| Time | 2026-05-05 13:17 |
|---|---|
| Airport | Philip S. W. Goldson International Airport (MZBZ) |
| Time | Latitude | Longitude | Altitude | Speed | Heading |
|---|---|---|---|---|---|
| 2026-05-05 10:57 | 29.98438 | -95.33470 | 105 ft | 0 kts | 327° |
| 2026-05-05 11:16 | 29.98431 | -95.33465 | 106 ft | 4 kts | 322° |
| 2026-05-05 11:16 | 29.98415 | -95.33444 | 106 ft | 4 kts | 280° |
| 2026-05-05 11:16 | 29.98418 | -95.33415 | 106 ft | 4 kts | 244° |
| 2026-05-05 11:16 | 29.98425 | -95.33400 | 106 ft | 3 kts | 242° |
| 2026-05-05 11:17 | 29.98406 | -95.33401 | 104 ft | 4 kts | 174° |
| 2026-05-05 11:17 | 29.98379 | -95.33398 | 106 ft | 3 kts | 179° |
| 2026-05-05 11:17 | 29.98375 | -95.33398 | 106 ft | 0 kts | 180° |
| 2026-05-05 11:19 | 29.98374 | -95.33398 | -88 ft | 1 kts | 180° |
| 2026-05-05 11:19 | 29.98353 | -95.33398 | 106 ft | 6 kts | 180° |
| 2026-05-05 11:19 | 29.98302 | -95.33440 | 106 ft | 11 kts | 259° |
| 2026-05-05 11:20 | 29.98302 | -95.33527 | 105 ft | 11 kts | 276° |
| 2026-05-05 11:20 | 29.98307 | -95.33611 | 106 ft | 10 kts | 275° |
| 2026-05-05 11:20 | 29.98313 | -95.33693 | 106 ft | 10 kts | 276° |
| 2026-05-05 11:20 | 29.98316 | -95.33780 | 106 ft | 13 kts | 270° |
| 2026-05-05 11:21 | 29.98316 | -95.33898 | 106 ft | 17 kts | 271° |
| 2026-05-05 11:21 | 29.98348 | -95.34043 | 106 ft | 21 kts | 302° |
| 2026-05-05 11:21 | 29.98376 | -95.34219 | 106 ft | 24 kts | 270° |
| 2026-05-05 11:21 | 29.98376 | -95.34416 | 106 ft | 24 kts | 270° |
| 2026-05-05 11:22 | 29.98378 | -95.34605 | 106 ft | 23 kts | 269° |
| 2026-05-05 11:22 | 29.98378 | -95.34786 | 106 ft | 22 kts | 270° |
| 2026-05-05 11:22 | 29.98379 | -95.34963 | 106 ft | 22 kts | 270° |
| 2026-05-05 11:22 | 29.98380 | -95.35133 | 106 ft | 21 kts | 270° |
| 2026-05-05 11:23 | 29.98464 | -95.35252 | 106 ft | 20 kts | 330° |
| 2026-05-05 11:23 | 29.98587 | -95.35328 | 106 ft | 20 kts | 333° |
| 2026-05-05 11:23 | 29.98707 | -95.35401 | 106 ft | 19 kts | 332° |
| 2026-05-05 11:23 | 29.98822 | -95.35472 | 106 ft | 18 kts | 332° |
| 2026-05-05 11:24 | 29.98873 | -95.35580 | 106 ft | 18 kts | 243° |
| 2026-05-05 11:24 | 29.98816 | -95.35703 | 107 ft | 17 kts | 242° |
| 2026-05-05 11:24 | 29.98767 | -95.35769 | 108 ft | 7 kts | 176° |
| 2026-05-05 11:24 | 29.98644 | -95.35698 | 107 ft | 49 kts | 152° |
| 2026-05-05 11:25 | 29.98133 | -95.35386 | 106 ft | 115 kts | 152° |
| 2026-05-05 11:25 | 29.97263 | -95.34853 | 154 ft | 162 kts | 153° |
| 2026-05-05 11:25 | 29.96268 | -95.34216 | 785 ft | 164 kts | 152° |
| 2026-05-05 11:25 | 29.95403 | -95.33387 | 1599 ft | 162 kts | 136° |
| 2026-05-05 11:26 | 29.94699 | -95.32340 | 2226 ft | 172 kts | 138° |
| 2026-05-05 11:26 | 29.93886 | -95.31193 | 2487 ft | 200 kts | 137° |
| 2026-05-05 11:26 | 29.92940 | -95.29851 | 2640 ft | 226 kts | 136° |
| 2026-05-05 11:26 | 29.91924 | -95.28386 | 2842 ft | 249 kts | 135° |
| 2026-05-05 11:27 | 29.90814 | -95.26770 | 3317 ft | 263 kts | 134° |
| 2026-05-05 11:27 | 29.89660 | -95.25087 | 3897 ft | 268 kts | 134° |
| 2026-05-05 11:27 | 29.88532 | -95.23425 | 4000 ft | 267 kts | 132° |
| 2026-05-05 11:27 | 29.87430 | -95.21656 | 4381 ft | 275 kts | 131° |
| 2026-05-05 11:28 | 29.86315 | -95.19848 | 4879 ft | 278 kts | 131° |
| 2026-05-05 11:28 | 29.85207 | -95.18049 | 5004 ft | 277 kts | 131° |
| 2026-05-05 11:28 | 29.84016 | -95.16145 | 5036 ft | 308 kts | 130° |
| 2026-05-05 11:28 | 29.82696 | -95.14055 | 5036 ft | 336 kts | 131° |
| 2026-05-05 11:29 | 29.81010 | -95.12161 | 5482 ft | 339 kts | 147° |
| 2026-05-05 11:29 | 29.79135 | -95.10580 | 6448 ft | 330 kts | 147° |
| 2026-05-05 11:29 | 29.77319 | -95.09027 | 7463 ft | 319 kts | 146° |
| 2026-05-05 11:29 | 29.75574 | -95.07509 | 8482 ft | 310 kts | 148° |
| 2026-05-05 11:30 | 29.73703 | -95.06382 | 9375 ft | 302 kts | 162° |
| 2026-05-05 11:30 | 29.71724 | -95.05554 | 10021 ft | 306 kts | 164° |
| 2026-05-05 11:30 | 29.70367 | -95.05020 | 10311 ft | 315 kts | 164° |
| 2026-05-05 11:30 | 29.68213 | -95.04170 | 10390 ft | 341 kts | 163° |
| 2026-05-05 11:31 | 29.65912 | -95.03222 | 10554 ft | 361 kts | 163° |
| 2026-05-05 11:31 | 29.63493 | -95.02202 | 10703 ft | 379 kts | 162° |
| 2026-05-05 11:31 | 29.60984 | -95.01137 | 11013 ft | 390 kts | 162° |
| 2026-05-05 11:31 | 29.58420 | -95.00047 | 11515 ft | 394 kts | 163° |
| 2026-05-05 11:32 | 29.55836 | -94.98953 | 12091 ft | 396 kts | 163° |
| 2026-05-05 11:32 | 29.53237 | -94.97855 | 12650 ft | 400 kts | 163° |
| 2026-05-05 11:32 | 29.50611 | -94.96747 | 13219 ft | 404 kts | 163° |
| 2026-05-05 11:32 | 29.47959 | -94.95629 | 13760 ft | 408 kts | 164° |
| 2026-05-05 11:33 | 29.45286 | -94.94502 | 14263 ft | 412 kts | 164° |
| 2026-05-05 11:33 | 29.42582 | -94.93362 | 14737 ft | 416 kts | 163° |
| 2026-05-05 11:33 | 29.39848 | -94.92210 | 15219 ft | 421 kts | 164° |
| 2026-05-05 11:33 | 29.37086 | -94.91046 | 15724 ft | 425 kts | 164° |
| 2026-05-05 11:34 | 29.34298 | -94.89872 | 16206 ft | 429 kts | 164° |
| 2026-05-05 11:34 | 29.31481 | -94.88687 | 16681 ft | 433 kts | 164° |
| 2026-05-05 11:34 | 29.28640 | -94.87490 | 17168 ft | 438 kts | 163° |
| 2026-05-05 11:34 | 29.25911 | -94.85859 | 17580 ft | 451 kts | 145° |
| 2026-05-05 11:35 | 29.23591 | -94.83413 | 18094 ft | 456 kts | 138° |
| 2026-05-05 11:35 | 29.21298 | -94.80877 | 18490 ft | 460 kts | 139° |
| 2026-05-05 11:35 | 29.18980 | -94.78329 | 18849 ft | 465 kts | 139° |
| 2026-05-05 11:35 | 29.16625 | -94.75766 | 19214 ft | 469 kts | 139° |
| 2026-05-05 11:36 | 29.14244 | -94.73194 | 19592 ft | 472 kts | 140° |
| 2026-05-05 11:36 | 29.11842 | -94.70614 | 20001 ft | 475 kts | 140° |
| 2026-05-05 11:36 | 29.09460 | -94.68065 | 20351 ft | 478 kts | 140° |
| 2026-05-05 11:36 | 29.07015 | -94.65455 | 20706 ft | 482 kts | 140° |
| 2026-05-05 11:37 | 29.04549 | -94.62826 | 21052 ft | 486 kts | 140° |
| 2026-05-05 11:37 | 29.02063 | -94.60178 | 21380 ft | 490 kts | 140° |
| 2026-05-05 11:37 | 28.99558 | -94.57509 | 21714 ft | 494 kts | 140° |
| 2026-05-05 11:37 | 28.97029 | -94.54817 | 22029 ft | 499 kts | 141° |
| 2026-05-05 11:38 | 28.94479 | -94.52105 | 22325 ft | 503 kts | 141° |
| 2026-05-05 11:38 | 28.91910 | -94.49372 | 22662 ft | 506 kts | 141° |
| 2026-05-05 11:38 | 28.89324 | -94.46622 | 22992 ft | 509 kts | 141° |
| 2026-05-05 11:38 | 28.86726 | -94.43863 | 23304 ft | 512 kts | 141° |
| 2026-05-05 11:39 | 28.84113 | -94.41089 | 23643 ft | 514 kts | 141° |
| 2026-05-05 11:39 | 28.81494 | -94.38309 | 23929 ft | 516 kts | 141° |
| 2026-05-05 11:39 | 28.78861 | -94.35518 | 24209 ft | 518 kts | 141° |
| 2026-05-05 11:39 | 28.76215 | -94.32715 | 24502 ft | 519 kts | 141° |
| 2026-05-05 11:40 | 28.73596 | -94.29944 | 24773 ft | 521 kts | 141° |
| 2026-05-05 11:40 | 28.70933 | -94.27127 | 25050 ft | 523 kts | 141° |
| 2026-05-05 11:40 | 28.68264 | -94.24307 | 25324 ft | 524 kts | 141° |
| 2026-05-05 11:40 | 28.65583 | -94.21475 | 25577 ft | 526 kts | 141° |
| 2026-05-05 11:41 | 28.62894 | -94.18638 | 25840 ft | 528 kts | 140° |
| 2026-05-05 11:41 | 28.60188 | -94.15786 | 26031 ft | 531 kts | 140° |
| 2026-05-05 11:41 | 28.57475 | -94.12927 | 26260 ft | 533 kts | 140° |
| 2026-05-05 11:41 | 28.54753 | -94.10061 | 26573 ft | 533 kts | 140° |
| 2026-05-05 11:42 | 28.52028 | -94.07193 | 26826 ft | 534 kts | 140° |
| 2026-05-05 11:42 | 28.49295 | -94.04319 | 27028 ft | 536 kts | 140° |
| 2026-05-05 11:42 | 28.46555 | -94.01441 | 27244 ft | 538 kts | 140° |
| 2026-05-05 11:42 | 28.43801 | -93.98550 | 27458 ft | 540 kts | 140° |
| 2026-05-05 11:43 | 28.41036 | -93.95650 | 27673 ft | 541 kts | 140° |
| 2026-05-05 11:43 | 28.38265 | -93.92746 | 27900 ft | 542 kts | 140° |
| 2026-05-05 11:43 | 28.35489 | -93.89837 | 28162 ft | 542 kts | 140° |
| 2026-05-05 11:43 | 28.32723 | -93.86942 | 28480 ft | 541 kts | 140° |
| 2026-05-05 11:44 | 28.29962 | -93.84053 | 28837 ft | 539 kts | 140° |
| 2026-05-05 11:44 | 28.27213 | -93.81179 | 29262 ft | 536 kts | 140° |
| 2026-05-05 11:44 | 28.24472 | -93.78315 | 29622 ft | 535 kts | 140° |
| 2026-05-05 11:44 | 28.21736 | -93.75461 | 29881 ft | 536 kts | 140° |
| 2026-05-05 11:45 | 28.19025 | -93.72635 | 30121 ft | 536 kts | 140° |
| 2026-05-05 11:45 | 28.16278 | -93.69773 | 30405 ft | 535 kts | 140° |
| 2026-05-05 11:45 | 28.13545 | -93.66927 | 30697 ft | 535 kts | 140° |
| 2026-05-05 11:45 | 28.10801 | -93.64072 | 30966 ft | 534 kts | 140° |
| 2026-05-05 11:46 | 28.08066 | -93.61228 | 31210 ft | 535 kts | 140° |
| 2026-05-05 11:46 | 28.05325 | -93.58381 | 31473 ft | 535 kts | 140° |
| 2026-05-05 11:46 | 28.02581 | -93.55531 | 31763 ft | 534 kts | 140° |
| 2026-05-05 11:46 | 27.99846 | -93.52693 | 32060 ft | 533 kts | 140° |
| 2026-05-05 11:47 | 27.97118 | -93.49864 | 32430 ft | 531 kts | 140° |
| 2026-05-05 11:47 | 27.94394 | -93.47041 | 32741 ft | 530 kts | 140° |
| 2026-05-05 11:47 | 27.91680 | -93.44231 | 33150 ft | 527 kts | 141° |
| 2026-05-05 11:47 | 27.88988 | -93.41444 | 33692 ft | 521 kts | 141° |
| 2026-05-05 11:48 | 27.83700 | -93.35977 | 34613 ft | 511 kts | 141° |
| 2026-05-05 11:48 | 27.81087 | -93.33279 | 34945 ft | 509 kts | 141° |
| 2026-05-05 11:48 | 27.78473 | -93.30583 | 35195 ft | 509 kts | 141° |
| 2026-05-05 11:49 | 27.75853 | -93.27883 | 35417 ft | 510 kts | 141° |
| 2026-05-05 11:49 | 27.73234 | -93.25184 | 35680 ft | 509 kts | 141° |
| 2026-05-05 11:49 | 27.70623 | -93.22495 | 35978 ft | 507 kts | 141° |
| 2026-05-05 11:49 | 27.67909 | -93.19991 | 36247 ft | 500 kts | 154° |
| 2026-05-05 11:50 | 27.64797 | -93.18384 | 36484 ft | 487 kts | 167° |
| 2026-05-05 11:50 | 27.61589 | -93.17163 | 36774 ft | 485 kts | 168° |
| 2026-05-05 11:50 | 27.58438 | -93.15961 | 36941 ft | 487 kts | 167° |
| 2026-05-05 11:50 | 27.55215 | -93.14689 | 36930 ft | 492 kts | 166° |
| 2026-05-05 11:51 | 27.48724 | -93.12030 | 36945 ft | 500 kts | 166° |
| 2026-05-05 11:51 | 27.42125 | -93.09338 | 36921 ft | 506 kts | 166° |
| 2026-05-05 11:52 | 27.35487 | -93.06645 | 36943 ft | 507 kts | 166° |
| 2026-05-05 11:52 | 27.28840 | -93.03951 | 36933 ft | 508 kts | 166° |
| 2026-05-05 11:53 | 27.22185 | -93.01254 | 36943 ft | 508 kts | 166° |
| 2026-05-05 11:53 | 27.15538 | -92.98564 | 36935 ft | 508 kts | 166° |
| 2026-05-05 11:54 | 27.08943 | -92.95898 | 36939 ft | 506 kts | 165° |
| 2026-05-05 11:54 | 27.02330 | -92.93229 | 36936 ft | 504 kts | 165° |
| 2026-05-05 11:55 | 26.95732 | -92.90569 | 36939 ft | 503 kts | 165° |
| 2026-05-05 11:55 | 26.89160 | -92.87923 | 36947 ft | 501 kts | 165° |
| 2026-05-05 11:56 | 26.82599 | -92.85284 | 36929 ft | 500 kts | 165° |
| 2026-05-05 11:56 | 26.76314 | -92.81876 | 36961 ft | 505 kts | 153° |
| 2026-05-05 11:57 | 26.70300 | -92.77771 | 36948 ft | 506 kts | 152° |
| 2026-05-05 11:57 | 26.64298 | -92.73661 | 36954 ft | 505 kts | 153° |
| 2026-05-05 11:58 | 26.58277 | -92.69606 | 36956 ft | 505 kts | 153° |
| 2026-05-05 11:58 | 26.52238 | -92.65580 | 36929 ft | 506 kts | 153° |
| 2026-05-05 11:59 | 26.46189 | -92.61558 | 36956 ft | 507 kts | 153° |
| 2026-05-05 11:59 | 26.40124 | -92.57528 | 36960 ft | 508 kts | 153° |
| 2026-05-05 12:00 | 26.34035 | -92.53484 | 36960 ft | 510 kts | 153° |
| 2026-05-05 12:00 | 26.27974 | -92.49463 | 36960 ft | 511 kts | 153° |
| 2026-05-05 12:01 | 26.21852 | -92.45406 | 36947 ft | 512 kts | 153° |
| 2026-05-05 12:01 | 26.15726 | -92.41351 | 36959 ft | 512 kts | 153° |
| 2026-05-05 12:02 | 26.09593 | -92.37297 | 36957 ft | 512 kts | 153° |
| 2026-05-05 12:02 | 26.03476 | -92.33258 | 36957 ft | 512 kts | 153° |
| 2026-05-05 12:03 | 25.97357 | -92.29224 | 36959 ft | 511 kts | 153° |
| 2026-05-05 12:03 | 25.91245 | -92.25198 | 36953 ft | 510 kts | 152° |
| 2026-05-05 12:04 | 25.85147 | -92.21187 | 36959 ft | 509 kts | 152° |
| 2026-05-05 12:04 | 25.79056 | -92.17186 | 36961 ft | 508 kts | 152° |
| 2026-05-05 12:05 | 25.72981 | -92.13199 | 36961 ft | 507 kts | 152° |
| 2026-05-05 12:05 | 25.66948 | -92.09246 | 36962 ft | 507 kts | 152° |
| 2026-05-05 12:06 | 25.60881 | -92.05275 | 36949 ft | 506 kts | 152° |
| 2026-05-05 12:06 | 25.54820 | -92.01312 | 36961 ft | 505 kts | 152° |
| 2026-05-05 12:07 | 25.48766 | -91.97358 | 36965 ft | 505 kts | 152° |
| 2026-05-05 12:07 | 25.42705 | -91.93405 | 36963 ft | 505 kts | 152° |
| 2026-05-05 12:08 | 25.36648 | -91.89459 | 36966 ft | 505 kts | 152° |
| 2026-05-05 12:08 | 25.30579 | -91.85510 | 36951 ft | 506 kts | 152° |
| 2026-05-05 12:09 | 25.24506 | -91.81562 | 36966 ft | 507 kts | 152° |
| 2026-05-05 12:09 | 25.18425 | -91.77615 | 36965 ft | 508 kts | 152° |
| 2026-05-05 12:10 | 25.12325 | -91.73659 | 36965 ft | 508 kts | 152° |
| 2026-05-05 12:10 | 25.06261 | -91.69732 | 36965 ft | 509 kts | 152° |
| 2026-05-05 12:11 | 25.00147 | -91.65776 | 36965 ft | 510 kts | 152° |
| 2026-05-05 12:11 | 24.94024 | -91.61819 | 36966 ft | 510 kts | 152° |
| 2026-05-05 12:12 | 24.87909 | -91.57872 | 36967 ft | 509 kts | 152° |
| 2026-05-05 12:12 | 24.81784 | -91.53923 | 36966 ft | 509 kts | 152° |
| 2026-05-05 12:13 | 24.75668 | -91.49985 | 36962 ft | 509 kts | 152° |
| 2026-05-05 12:13 | 24.69559 | -91.46055 | 36969 ft | 509 kts | 152° |
| 2026-05-05 12:14 | 24.63453 | -91.42131 | 36966 ft | 508 kts | 152° |
| 2026-05-05 12:14 | 24.57336 | -91.38204 | 36965 ft | 508 kts | 152° |
| 2026-05-05 12:15 | 24.51261 | -91.34310 | 36970 ft | 508 kts | 152° |
| 2026-05-05 12:15 | 24.44968 | -91.30840 | 36975 ft | 505 kts | 159° |
| 2026-05-05 12:16 | 24.38510 | -91.27801 | 36966 ft | 505 kts | 160° |
| 2026-05-05 12:16 | 24.32045 | -91.24777 | 36965 ft | 505 kts | 159° |
| 2026-05-05 12:17 | 24.25600 | -91.21697 | 36970 ft | 505 kts | 159° |
| 2026-05-05 12:17 | 24.19176 | -91.18595 | 36964 ft | 505 kts | 159° |
| 2026-05-05 12:18 | 24.13838 | -91.16013 | 36967 ft | 505 kts | 159° |
| 2026-05-05 12:18 | 24.07407 | -91.12909 | 36961 ft | 505 kts | 159° |
| 2026-05-05 12:19 | 24.00979 | -91.09813 | 36960 ft | 505 kts | 158° |
| 2026-05-05 12:19 | 23.94542 | -91.06716 | 36970 ft | 505 kts | 158° |
| 2026-05-05 12:20 | 23.88112 | -91.03627 | 36962 ft | 505 kts | 158° |
| 2026-05-05 12:20 | 23.81684 | -91.00542 | 36961 ft | 505 kts | 158° |
| 2026-05-05 12:21 | 23.75250 | -90.97457 | 36963 ft | 505 kts | 158° |
| 2026-05-05 12:21 | 23.68827 | -90.94381 | 36970 ft | 504 kts | 158° |
| 2026-05-05 12:22 | 23.62439 | -90.91324 | 36963 ft | 504 kts | 158° |
| 2026-05-05 12:22 | 23.56005 | -90.88250 | 36955 ft | 504 kts | 158° |
| 2026-05-05 12:23 | 23.49591 | -90.85188 | 36955 ft | 503 kts | 158° |
| 2026-05-05 12:23 | 23.43172 | -90.82126 | 36961 ft | 503 kts | 158° |
| 2026-05-05 12:24 | 23.36762 | -90.79073 | 36956 ft | 502 kts | 158° |
| 2026-05-05 12:24 | 23.30360 | -90.76026 | 36960 ft | 501 kts | 158° |
| 2026-05-05 12:25 | 23.23973 | -90.72990 | 36957 ft | 501 kts | 158° |
| 2026-05-05 12:25 | 23.17629 | -90.69977 | 36956 ft | 500 kts | 158° |
| 2026-05-05 12:26 | 23.11253 | -90.66953 | 36959 ft | 500 kts | 158° |
| 2026-05-05 12:26 | 23.04871 | -90.63928 | 36958 ft | 499 kts | 158° |
| 2026-05-05 12:27 | 22.98509 | -90.60917 | 36957 ft | 499 kts | 158° |
| 2026-05-05 12:27 | 22.92145 | -90.57907 | 36956 ft | 499 kts | 158° |
| 2026-05-05 12:28 | 22.85777 | -90.54898 | 36959 ft | 499 kts | 158° |
| 2026-05-05 12:28 | 22.79418 | -90.51897 | 36959 ft | 498 kts | 158° |
| 2026-05-05 12:29 | 22.73058 | -90.48899 | 36959 ft | 498 kts | 157° |
| 2026-05-05 12:29 | 22.66701 | -90.45905 | 36955 ft | 497 kts | 157° |
| 2026-05-05 12:30 | 22.60398 | -90.42939 | 36953 ft | 497 kts | 158° |
| 2026-05-05 12:30 | 22.54074 | -90.39966 | 36955 ft | 497 kts | 158° |
| 2026-05-05 12:31 | 22.47730 | -90.36987 | 36955 ft | 496 kts | 158° |
| 2026-05-05 12:31 | 22.41396 | -90.34016 | 36953 ft | 496 kts | 157° |
| 2026-05-05 12:32 | 22.35072 | -90.31053 | 36951 ft | 495 kts | 157° |
| 2026-05-05 12:32 | 22.28748 | -90.28092 | 36954 ft | 495 kts | 157° |
| 2026-05-05 12:33 | 22.22431 | -90.25137 | 36956 ft | 495 kts | 157° |
| 2026-05-05 12:33 | 22.16114 | -90.22185 | 36957 ft | 495 kts | 157° |
| 2026-05-05 12:34 | 22.09795 | -90.19236 | 36950 ft | 494 kts | 157° |
| 2026-05-05 12:34 | 22.03487 | -90.16294 | 36952 ft | 494 kts | 157° |
| 2026-05-05 12:35 | 21.97186 | -90.13359 | 36955 ft | 493 kts | 157° |
| 2026-05-05 12:35 | 21.90880 | -90.10423 | 36955 ft | 493 kts | 157° |
| 2026-05-05 12:36 | 21.84582 | -90.07494 | 36955 ft | 493 kts | 157° |
| 2026-05-05 12:36 | 21.78330 | -90.04589 | 36941 ft | 492 kts | 157° |
| 2026-05-05 12:37 | 21.72009 | -90.01655 | 36954 ft | 491 kts | 157° |
| 2026-05-05 12:37 | 21.65742 | -89.98858 | 36959 ft | 490 kts | 159° |
| 2026-05-05 12:38 | 21.59383 | -89.96220 | 36955 ft | 490 kts | 160° |
| 2026-05-05 12:38 | 21.53028 | -89.93597 | 36956 ft | 489 kts | 160° |
| 2026-05-05 12:39 | 21.46683 | -89.90951 | 36958 ft | 489 kts | 159° |
| 2026-05-05 12:39 | 21.40339 | -89.88291 | 36956 ft | 489 kts | 159° |
| 2026-05-05 12:40 | 21.33998 | -89.85631 | 36955 ft | 489 kts | 159° |
| 2026-05-05 12:40 | 21.27649 | -89.82970 | 36956 ft | 490 kts | 159° |
| 2026-05-05 12:41 | 21.21288 | -89.80309 | 36957 ft | 490 kts | 159° |
| 2026-05-05 12:41 | 21.14975 | -89.77670 | 36959 ft | 491 kts | 159° |
| 2026-05-05 12:42 | 21.08621 | -89.75017 | 36959 ft | 490 kts | 159° |
| 2026-05-05 12:42 | 21.02268 | -89.72366 | 36945 ft | 489 kts | 159° |
| 2026-05-05 12:43 | 20.95927 | -89.69723 | 36952 ft | 489 kts | 159° |
| 2026-05-05 12:43 | 20.89594 | -89.67086 | 36956 ft | 488 kts | 159° |
| 2026-05-05 12:44 | 20.83273 | -89.64456 | 36953 ft | 487 kts | 159° |
| 2026-05-05 12:44 | 20.76951 | -89.61828 | 36952 ft | 487 kts | 159° |
| 2026-05-05 12:45 | 20.70645 | -89.59209 | 36956 ft | 486 kts | 159° |
| 2026-05-05 12:45 | 20.64345 | -89.56594 | 36960 ft | 486 kts | 159° |
| 2026-05-05 12:46 | 20.58078 | -89.53996 | 36969 ft | 486 kts | 159° |
| 2026-05-05 12:46 | 20.52565 | -89.51713 | 36961 ft | 486 kts | 159° |
| 2026-05-05 12:47 | 20.46257 | -89.49101 | 36958 ft | 486 kts | 159° |
| 2026-05-05 12:47 | 20.39995 | -89.46512 | 36965 ft | 486 kts | 159° |
| 2026-05-05 12:48 | 20.33682 | -89.43903 | 36967 ft | 486 kts | 160° |
| 2026-05-05 12:48 | 20.27366 | -89.41296 | 36965 ft | 487 kts | 160° |
| 2026-05-05 12:49 | 20.21039 | -89.38687 | 36970 ft | 487 kts | 160° |
| 2026-05-05 12:49 | 20.14714 | -89.36080 | 36970 ft | 488 kts | 160° |
| 2026-05-05 12:50 | 20.08368 | -89.33467 | 36967 ft | 488 kts | 160° |
| 2026-05-05 12:50 | 20.02027 | -89.30859 | 36969 ft | 489 kts | 160° |
| 2026-05-05 12:51 | 19.95679 | -89.28250 | 36968 ft | 489 kts | 160° |
| 2026-05-05 12:51 | 19.89362 | -89.25655 | 36971 ft | 489 kts | 160° |
| 2026-05-05 12:52 | 19.83016 | -89.23051 | 36971 ft | 489 kts | 160° |
| 2026-05-05 12:52 | 19.76670 | -89.20450 | 36966 ft | 489 kts | 160° |
| 2026-05-05 12:53 | 19.70514 | -89.17928 | 36969 ft | 488 kts | 160° |
| 2026-05-05 12:53 | 19.64181 | -89.15336 | 36969 ft | 487 kts | 160° |
| 2026-05-05 12:54 | 19.55129 | -89.11635 | 36967 ft | 487 kts | 160° |
| 2026-05-05 12:55 | 19.48808 | -89.09054 | 36967 ft | 486 kts | 160° |
| 2026-05-05 12:55 | 19.42496 | -89.06478 | 36972 ft | 485 kts | 159° |
| 2026-05-05 12:56 | 19.36199 | -89.03910 | 36968 ft | 484 kts | 159° |
| 2026-05-05 12:56 | 19.29951 | -89.01365 | 36968 ft | 483 kts | 159° |
| 2026-05-05 12:57 | 19.23672 | -88.98808 | 36963 ft | 483 kts | 159° |
| 2026-05-05 12:57 | 19.17405 | -88.96260 | 36967 ft | 482 kts | 159° |
| 2026-05-05 12:58 | 19.11142 | -88.93714 | 36967 ft | 482 kts | 160° |
| 2026-05-05 12:58 | 19.04877 | -88.91170 | 36973 ft | 481 kts | 160° |
| 2026-05-05 12:59 | 18.98632 | -88.88636 | 36466 ft | 481 kts | 160° |
| 2026-05-05 12:59 | 18.95510 | -88.87370 | 35562 ft | 481 kts | 160° |
| 2026-05-05 12:59 | 18.92369 | -88.86097 | 34851 ft | 484 kts | 159° |
| 2026-05-05 13:00 | 18.86085 | -88.83552 | 33353 ft | 489 kts | 159° |
| 2026-05-05 13:00 | 18.82902 | -88.82263 | 32601 ft | 490 kts | 159° |
| 2026-05-05 13:01 | 18.73302 | -88.78379 | 30226 ft | 496 kts | 158° |
| 2026-05-05 13:01 | 18.70066 | -88.77071 | 29254 ft | 499 kts | 158° |
| 2026-05-05 13:01 | 18.66817 | -88.75758 | 28320 ft | 501 kts | 158° |
| 2026-05-05 13:01 | 18.63558 | -88.74441 | 27352 ft | 502 kts | 158° |
| 2026-05-05 13:02 | 18.60290 | -88.73122 | 26364 ft | 503 kts | 158° |
| 2026-05-05 13:02 | 18.57024 | -88.71804 | 25559 ft | 501 kts | 158° |
| 2026-05-05 13:02 | 18.53776 | -88.70494 | 24796 ft | 497 kts | 158° |
| 2026-05-05 13:02 | 18.50562 | -88.69198 | 24071 ft | 493 kts | 158° |
| 2026-05-05 13:03 | 18.47371 | -88.67912 | 23307 ft | 489 kts | 158° |
| 2026-05-05 13:03 | 18.44201 | -88.66634 | 22500 ft | 484 kts | 158° |
| 2026-05-05 13:03 | 18.41074 | -88.65374 | 21759 ft | 479 kts | 158° |
| 2026-05-05 13:03 | 18.37978 | -88.64134 | 21046 ft | 473 kts | 158° |
| 2026-05-05 13:04 | 18.34908 | -88.62926 | 20347 ft | 468 kts | 159° |
| 2026-05-05 13:04 | 18.31873 | -88.61741 | 19635 ft | 464 kts | 159° |
| 2026-05-05 13:04 | 18.28860 | -88.60565 | 18929 ft | 460 kts | 159° |
| 2026-05-05 13:04 | 18.25906 | -88.59410 | 18230 ft | 457 kts | 159° |
| 2026-05-05 13:05 | 18.22898 | -88.58231 | 17429 ft | 453 kts | 159° |
| 2026-05-05 13:05 | 18.19994 | -88.57093 | 16725 ft | 448 kts | 159° |
| 2026-05-05 13:05 | 18.17064 | -88.55904 | 16055 ft | 442 kts | 154° |
| 2026-05-05 13:05 | 18.14539 | -88.54223 | 15516 ft | 433 kts | 140° |
| 2026-05-05 13:06 | 18.12257 | -88.52202 | 15028 ft | 425 kts | 139° |
| 2026-05-05 13:06 | 18.10016 | -88.50216 | 14528 ft | 419 kts | 139° |
| 2026-05-05 13:06 | 18.07774 | -88.48261 | 14010 ft | 417 kts | 140° |
| 2026-05-05 13:06 | 18.05544 | -88.46348 | 13470 ft | 411 kts | 140° |
| 2026-05-05 13:07 | 18.03340 | -88.44475 | 12937 ft | 404 kts | 141° |
| 2026-05-05 13:07 | 18.01893 | -88.43250 | 12604 ft | 400 kts | 141° |
| 2026-05-05 13:07 | 17.99747 | -88.41434 | 12113 ft | 393 kts | 140° |
| 2026-05-05 13:07 | 17.97604 | -88.39622 | 11635 ft | 387 kts | 140° |
| 2026-05-05 13:08 | 17.95523 | -88.37863 | 11171 ft | 381 kts | 140° |
| 2026-05-05 13:08 | 17.93486 | -88.36140 | 10710 ft | 369 kts | 140° |
| 2026-05-05 13:08 | 17.91553 | -88.34505 | 10258 ft | 354 kts | 140° |
| 2026-05-05 13:08 | 17.89672 | -88.32914 | 9919 ft | 338 kts | 140° |
| 2026-05-05 13:09 | 17.87913 | -88.31425 | 9918 ft | 313 kts | 140° |
| 2026-05-05 13:09 | 17.86267 | -88.30033 | 9798 ft | 295 kts | 140° |
| 2026-05-05 13:09 | 17.84692 | -88.28701 | 9429 ft | 288 kts | 140° |
| 2026-05-05 13:09 | 17.83140 | -88.27388 | 8941 ft | 285 kts | 140° |
| 2026-05-05 13:10 | 17.81598 | -88.26083 | 8433 ft | 284 kts | 140° |
| 2026-05-05 13:10 | 17.80067 | -88.24788 | 7957 ft | 282 kts | 140° |
| 2026-05-05 13:10 | 17.78547 | -88.23504 | 7508 ft | 279 kts | 140° |
| 2026-05-05 13:10 | 17.77040 | -88.22230 | 7039 ft | 278 kts | 140° |
| 2026-05-05 13:11 | 17.75534 | -88.20957 | 6574 ft | 277 kts | 141° |
| 2026-05-05 13:11 | 17.74052 | -88.19705 | 6293 ft | 269 kts | 141° |
| 2026-05-05 13:11 | 17.72626 | -88.18501 | 6086 ft | 258 kts | 140° |
| 2026-05-05 13:11 | 17.71251 | -88.17341 | 5827 ft | 250 kts | 140° |
| 2026-05-05 13:12 | 17.70136 | -88.16400 | 5634 ft | 243 kts | 140° |
| 2026-05-05 13:12 | 17.68844 | -88.15310 | 5436 ft | 234 kts | 140° |
| 2026-05-05 13:12 | 17.67529 | -88.14367 | 5194 ft | 227 kts | 158° |
| 2026-05-05 13:12 | 17.66007 | -88.13971 | 4932 ft | 223 kts | 167° |
| 2026-05-05 13:13 | 17.64496 | -88.13630 | 4610 ft | 222 kts | 166° |
| 2026-05-05 13:13 | 17.62996 | -88.13279 | 4305 ft | 219 kts | 166° |
| 2026-05-05 13:13 | 17.61539 | -88.12935 | 4021 ft | 216 kts | 165° |
| 2026-05-05 13:13 | 17.60054 | -88.12623 | 3685 ft | 216 kts | 175° |
| 2026-05-05 13:14 | 17.58601 | -88.13015 | 3120 ft | 229 kts | 218° |
| 2026-05-05 13:14 | 17.57722 | -88.14340 | 2932 ft | 221 kts | 248° |
| 2026-05-05 13:14 | 17.57269 | -88.15850 | 2640 ft | 213 kts | 252° |
| 2026-05-05 13:14 | 17.56897 | -88.17330 | 2362 ft | 206 kts | 254° |
| 2026-05-05 13:15 | 17.56571 | -88.18757 | 2073 ft | 196 kts | 256° |
| 2026-05-05 13:15 | 17.56267 | -88.20126 | 1810 ft | 189 kts | 255° |
| 2026-05-05 13:15 | 17.55980 | -88.21428 | 1597 ft | 176 kts | 255° |
| 2026-05-05 13:15 | 17.55712 | -88.22641 | 1325 ft | 165 kts | 255° |
| 2026-05-05 13:16 | 17.55462 | -88.23770 | 1107 ft | 156 kts | 255° |
| 2026-05-05 13:16 | 17.55216 | -88.24880 | 948 ft | 157 kts | 255° |
| 2026-05-05 13:16 | 17.54965 | -88.26009 | 712 ft | 162 kts | 255° |
| 2026-05-05 13:16 | 17.54711 | -88.27159 | 464 ft | 160 kts | 255° |
| 2026-05-05 13:17 | 17.54469 | -88.28266 | 239 ft | 152 kts | 256° |
| 2026-05-05 13:17 | 17.54242 | -88.29321 | 32 ft | 143 kts | 255° |
| 2026-05-05 13:17 | 17.54039 | -88.30235 | 28 ft | 110 kts | 257° |
| 2026-05-05 13:17 | 17.53923 | -88.30747 | 28 ft | 39 kts | 256° |
| 2026-05-05 13:18 | 17.53846 | -88.30871 | 29 ft | 13 kts | 167° |
| 2026-05-05 13:18 | 17.53761 | -88.30852 | 28 ft | 9 kts | 167° |
| 2026-05-05 13:18 | 17.53710 | -88.30850 | 27 ft | 7 kts | 171° |
| 2026-05-05 13:18 | 17.53669 | -88.30840 | 30 ft | 0 kts | 168° |